createdAt,value
2018-07-13T00:00:45.594Z,23.83
2018-07-13T00:01:51.125Z,14.23
2018-07-13T00:02:56.534Z,17.60
2018-07-13T00:04:01.999Z,26.67
2018-07-13T00:05:07.570Z,16.43
2018-07-13T00:06:13.103Z,18.20
2018-07-13T00:07:18.553Z,14.13
2018-07-13T00:08:23.966Z,19.63
2018-07-13T00:09:29.458Z,12.90
2018-07-13T00:10:35.005Z,20.07
2018-07-13T00:11:41.083Z,22.80
2018-07-13T00:12:46.529Z,21.53
2018-07-13T00:14:15.435Z,23.63
2018-07-13T00:15:20.853Z,15.40
2018-07-13T00:16:26.289Z,21.13
2018-07-13T00:17:31.824Z,19.63
2018-07-13T00:18:37.245Z,17.57
2018-07-13T00:19:42.675Z,14.10
2018-07-13T00:20:48.085Z,24.83
2018-07-13T00:21:53.613Z,21.17
2018-07-13T00:22:58.780Z,25.43
2018-07-13T00:24:04.437Z,21.13
2018-07-13T00:25:09.902Z,19.83
2018-07-13T00:26:15.321Z,15.83
2018-07-13T00:27:20.801Z,15.37
2018-07-13T00:28:26.282Z,20.10
2018-07-13T00:29:31.764Z,17.23
2018-07-13T00:30:37.202Z,21.30
2018-07-13T00:31:43.421Z,16.77
2018-07-13T00:32:48.861Z,18.40
2018-07-13T00:33:54.346Z,17.50
2018-07-13T00:34:59.793Z,18.10
2018-07-13T00:36:05.229Z,21.30
2018-07-13T00:37:10.641Z,31.87
2018-07-13T00:38:16.129Z,16.30
2018-07-13T00:39:21.577Z,15.10
2018-07-13T00:40:27.055Z,21.70
2018-07-13T00:41:32.602Z,20.23
2018-07-13T00:42:38.037Z,28.53
2018-07-13T00:43:43.473Z,15.00
2018-07-13T00:44:48.926Z,15.90
2018-07-13T00:45:54.369Z,14.47
2018-07-13T00:46:59.885Z,27.23
2018-07-13T00:48:05.374Z,19.73
2018-07-13T00:49:10.869Z,18.00
2018-07-13T00:50:16.371Z,24.20
2018-07-13T00:51:21.812Z,17.73
2018-07-13T00:52:27.335Z,23.30
2018-07-13T00:53:32.818Z,21.00
2018-07-13T00:54:38.293Z,16.80
2018-07-13T00:55:43.749Z,18.23
2018-07-13T00:56:49.317Z,27.27
2018-07-13T00:57:54.771Z,27.60
2018-07-13T00:59:00.330Z,20.17
2018-07-13T01:00:05.825Z,19.07
2018-07-13T01:01:11.694Z,17.30
2018-07-13T01:02:17.226Z,20.83
2018-07-13T01:03:22.697Z,20.17
2018-07-13T01:04:28.173Z,17.10
2018-07-13T01:05:33.626Z,23.10
2018-07-13T01:06:39.054Z,18.73
2018-07-13T01:07:44.934Z,10.80
2018-07-13T01:08:50.392Z,21.00
2018-07-13T01:09:55.834Z,21.27
2018-07-13T01:11:01.315Z,18.23
2018-07-13T01:12:06.836Z,12.70
2018-07-13T01:13:12.281Z,16.33
2018-07-13T01:14:17.734Z,19.50
2018-07-13T01:15:23.136Z,17.00
2018-07-13T01:16:28.597Z,14.90
2018-07-13T01:17:34.118Z,14.87
2018-07-13T01:18:39.519Z,17.03
2018-07-13T01:19:44.986Z,24.77
2018-07-13T01:20:50.453Z,22.73
2018-07-13T01:21:55.889Z,17.17
2018-07-13T01:23:01.405Z,20.50
2018-07-13T01:24:07.066Z,17.00
2018-07-13T01:25:12.527Z,23.63
2018-07-13T01:26:17.947Z,23.13
2018-07-13T01:27:27.155Z,14.37
2018-07-13T01:28:32.608Z,19.10
2018-07-13T01:29:38.035Z,25.73
2018-07-13T01:30:43.561Z,16.97
2018-07-13T01:31:48.990Z,10.93
2018-07-13T01:32:54.454Z,18.97
2018-07-13T01:33:59.574Z,22.10
2018-07-13T01:35:04.938Z,21.83
2018-07-13T01:36:10.354Z,16.63
2018-07-13T01:37:15.810Z,25.30
2018-07-13T01:38:21.280Z,17.53
2018-07-13T01:39:26.737Z,23.80
2018-07-13T01:40:32.194Z,20.33
2018-07-13T01:41:37.653Z,17.60
2018-07-13T01:42:43.073Z,27.60
2018-07-13T01:43:48.573Z,18.70
2018-07-13T01:44:54.042Z,22.17
2018-07-13T01:45:59.526Z,21.97
2018-07-13T01:47:05.018Z,19.10
2018-07-13T01:48:10.439Z,28.70
2018-07-13T01:49:15.906Z,26.00
2018-07-13T01:50:21.349Z,17.53
2018-07-13T01:51:26.771Z,22.83
2018-07-13T01:52:32.230Z,25.13
2018-07-13T01:53:37.652Z,24.93
2018-07-13T01:54:43.158Z,22.13
2018-07-13T01:55:48.611Z,28.67
2018-07-13T01:56:54.053Z,22.20
2018-07-13T01:57:59.493Z,27.63
2018-07-13T01:59:04.994Z,23.00
2018-07-13T02:00:10.777Z,32.60
2018-07-13T02:01:16.237Z,36.63
2018-07-13T02:02:21.694Z,32.47
2018-07-13T02:03:27.120Z,24.03
2018-07-13T02:04:32.681Z,35.20
2018-07-13T02:05:38.150Z,27.17
2018-07-13T02:06:43.628Z,33.07
2018-07-13T02:07:49.097Z,29.50
2018-07-13T02:09:02.826Z,32.30
2018-07-13T02:10:08.545Z,33.00
2018-07-13T02:11:13.998Z,29.77
2018-07-13T02:12:19.426Z,30.37
2018-07-13T02:13:24.854Z,32.40
2018-07-13T02:14:30.306Z,33.60
2018-07-13T02:15:35.777Z,29.73
2018-07-13T02:16:41.255Z,29.60
2018-07-13T02:17:46.673Z,38.70
2018-07-13T02:18:52.209Z,28.17
2018-07-13T02:19:57.660Z,33.97
2018-07-13T02:21:03.120Z,30.83
2018-07-13T02:22:08.807Z,28.70
2018-07-13T02:23:14.287Z,35.60
2018-07-13T02:24:19.717Z,32.07
2018-07-13T02:25:25.220Z,24.03
2018-07-13T02:26:30.940Z,28.20
2018-07-13T02:27:36.398Z,35.10
2018-07-13T02:28:41.849Z,32.67
2018-07-13T02:29:47.300Z,32.97
2018-07-13T02:30:52.732Z,25.97
2018-07-13T02:31:58.173Z,26.17
2018-07-13T02:33:03.609Z,20.70
2018-07-13T02:34:09.087Z,32.70
2018-07-13T02:35:14.501Z,26.00
2018-07-13T02:36:19.935Z,23.03
2018-07-13T02:37:25.403Z,27.13
2018-07-13T02:38:30.906Z,24.03
2018-07-13T02:39:36.717Z,27.17
2018-07-13T02:40:42.239Z,31.67
2018-07-13T02:41:47.681Z,30.10
2018-07-13T02:42:53.110Z,20.10
2018-07-13T02:43:58.677Z,21.07
2018-07-13T02:45:04.145Z,30.07
2018-07-13T02:46:09.651Z,27.70
2018-07-13T02:47:15.115Z,22.30
2018-07-13T02:48:20.575Z,28.60
2018-07-13T02:49:26.061Z,22.17
2018-07-13T02:50:31.478Z,22.97
2018-07-13T02:51:36.920Z,29.40
2018-07-13T02:52:42.377Z,33.47
2018-07-13T02:53:47.845Z,29.67
2018-07-13T02:54:53.306Z,18.37
2018-07-13T02:55:58.758Z,29.43
2018-07-13T02:57:04.253Z,24.57
2018-07-13T02:58:09.688Z,28.80
2018-07-13T02:59:15.486Z,24.20
2018-07-13T03:00:21.005Z,32.77
2018-07-13T03:01:26.441Z,27.77
2018-07-13T03:02:31.939Z,26.63
2018-07-13T03:03:37.439Z,27.63
2018-07-13T03:04:42.919Z,27.17
2018-07-13T03:05:48.469Z,24.40
2018-07-13T03:06:53.917Z,25.33
2018-07-13T03:07:59.482Z,24.10
2018-07-13T03:09:07.593Z,30.07
2018-07-13T03:10:13.054Z,30.73
2018-07-13T03:11:18.563Z,26.13
2018-07-13T03:12:23.994Z,25.70
2018-07-13T03:13:29.440Z,29.43
2018-07-13T03:14:35.053Z,33.10
2018-07-13T03:15:40.449Z,28.13
2018-07-13T03:16:45.902Z,33.23
2018-07-13T03:17:51.343Z,24.87
2018-07-13T03:18:56.770Z,41.03
2018-07-13T03:20:02.198Z,35.40
2018-07-13T03:21:07.725Z,29.07
2018-07-13T03:22:13.499Z,26.40
2018-07-13T03:23:18.889Z,34.33
2018-07-13T03:24:24.320Z,25.20
2018-07-13T03:25:29.785Z,36.37
2018-07-13T03:26:35.242Z,33.87
2018-07-13T03:27:40.689Z,25.43
2018-07-13T03:28:46.526Z,29.23
2018-07-13T03:29:51.986Z,27.90
2018-07-13T03:30:57.557Z,23.67
2018-07-13T03:32:03.323Z,24.27
2018-07-13T03:33:08.824Z,36.40
2018-07-13T03:34:14.339Z,25.70
2018-07-13T03:35:20.051Z,26.40
2018-07-13T03:36:25.260Z,25.60
2018-07-13T03:37:30.705Z,31.17
2018-07-13T03:38:36.178Z,27.50
2018-07-13T03:39:41.653Z,47.30
2018-07-13T03:40:47.125Z,30.10
2018-07-13T03:41:52.962Z,26.43
2018-07-13T03:42:58.373Z,30.20
2018-07-13T03:44:03.907Z,34.83
2018-07-13T03:45:09.746Z,32.80
2018-07-13T03:46:15.189Z,29.43
2018-07-13T03:47:20.641Z,31.43
2018-07-13T03:48:26.188Z,31.37
2018-07-13T03:49:31.571Z,25.70
2018-07-13T03:50:37.028Z,31.83
2018-07-13T03:51:42.532Z,27.67
2018-07-13T03:52:47.989Z,26.87
2018-07-13T03:53:53.449Z,29.53
2018-07-13T03:54:58.894Z,39.57
2018-07-13T03:56:04.865Z,33.50
2018-07-13T03:57:10.749Z,30.50
2018-07-13T03:58:16.186Z,28.70
2018-07-13T03:59:21.766Z,28.00
2018-07-13T04:00:28.199Z,30.17
2018-07-13T04:01:33.626Z,23.93
2018-07-13T04:02:39.481Z,25.53
2018-07-13T04:03:45.982Z,26.70
2018-07-13T04:04:51.490Z,27.80
2018-07-13T04:05:57.073Z,27.10
2018-07-13T04:07:02.574Z,31.67
2018-07-13T04:08:08.165Z,23.60
2018-07-13T04:09:13.622Z,28.13
2018-07-13T04:10:19.227Z,23.00
2018-07-13T04:11:24.805Z,29.67
2018-07-13T04:12:30.309Z,31.80
2018-07-13T04:13:35.482Z,24.20
2018-07-13T04:14:41.000Z,26.83
2018-07-13T04:15:46.606Z,27.03
2018-07-13T04:16:52.085Z,36.23
2018-07-13T04:17:57.622Z,23.87
2018-07-13T04:19:03.080Z,27.07
2018-07-13T04:20:08.638Z,33.23
2018-07-13T04:21:14.997Z,30.10
2018-07-13T04:22:20.531Z,30.43
2018-07-13T04:23:26.216Z,21.90
2018-07-13T04:24:31.773Z,32.03
2018-07-13T04:25:37.389Z,25.10
2018-07-13T04:26:46.820Z,25.00
2018-07-13T04:27:52.457Z,24.00
2018-07-13T04:28:58.059Z,21.70
2018-07-13T04:30:03.620Z,28.77
2018-07-13T04:31:09.158Z,25.00
2018-07-13T04:32:14.708Z,29.50
2018-07-13T04:33:20.221Z,28.63
2018-07-13T04:34:25.674Z,24.47
2018-07-13T04:35:31.678Z,25.40
2018-07-13T04:36:37.146Z,24.47
2018-07-13T04:37:42.597Z,22.23
2018-07-13T04:38:48.121Z,27.20
2018-07-13T04:39:53.618Z,22.93
2018-07-13T04:40:59.224Z,26.67
2018-07-13T04:42:04.481Z,27.07
2018-07-13T04:43:10.261Z,34.33
2018-07-13T04:44:15.758Z,37.00
2018-07-13T04:45:21.388Z,26.00
2018-07-13T04:46:26.954Z,26.50
2018-07-13T04:47:32.514Z,25.00
2018-07-13T04:48:38.156Z,23.67
2018-07-13T04:49:43.803Z,23.07
2018-07-13T04:50:49.418Z,23.70
2018-07-13T04:51:55.037Z,31.10
2018-07-13T04:53:01.166Z,25.93
2018-07-13T04:54:07.014Z,27.20
2018-07-13T04:55:12.621Z,31.53
2018-07-13T04:56:18.108Z,32.03
2018-07-13T04:57:23.674Z,22.73
2018-07-13T04:58:29.278Z,34.37
2018-07-13T04:59:34.884Z,20.17
2018-07-13T05:00:40.816Z,22.97
2018-07-13T05:01:46.553Z,28.97
2018-07-13T05:02:52.786Z,25.33
2018-07-13T05:03:58.429Z,23.30
2018-07-13T05:05:04.067Z,28.70
2018-07-13T05:06:09.941Z,27.47
2018-07-13T05:07:15.613Z,24.80
2018-07-13T05:08:21.169Z,22.43
2018-07-13T05:09:26.737Z,24.53
2018-07-13T05:10:32.337Z,22.97
2018-07-13T05:11:37.913Z,28.83
2018-07-13T05:12:43.425Z,19.60
2018-07-13T05:13:48.933Z,26.40
2018-07-13T05:14:54.373Z,22.13
2018-07-13T05:15:59.930Z,23.07
2018-07-13T05:17:05.493Z,25.63
2018-07-13T05:18:10.825Z,22.30
2018-07-13T05:19:16.229Z,26.93
2018-07-13T05:20:21.766Z,20.37
2018-07-13T05:21:27.363Z,25.90
2018-07-13T05:22:32.967Z,26.53
2018-07-13T05:23:38.550Z,24.60
2018-07-13T05:24:44.132Z,24.07
2018-07-13T05:25:50.198Z,34.23
2018-07-13T05:26:55.849Z,33.90
2018-07-13T05:28:01.408Z,24.60
2018-07-13T05:29:07.013Z,23.47
2018-07-13T05:30:12.709Z,19.77
2018-07-13T05:31:18.318Z,29.70
2018-07-13T05:32:23.905Z,24.67
2018-07-13T05:33:29.849Z,26.37
2018-07-13T05:34:35.448Z,26.73
2018-07-13T05:35:41.000Z,27.20
2018-07-13T05:36:46.673Z,22.97
2018-07-13T05:37:52.162Z,32.50
2018-07-13T05:38:57.726Z,20.63
2018-07-13T05:40:05.040Z,26.10
2018-07-13T05:41:10.658Z,24.53
2018-07-13T05:42:16.437Z,27.43
2018-07-13T05:43:22.485Z,20.50
2018-07-13T05:44:28.234Z,21.37
2018-07-13T05:45:33.844Z,33.73
2018-07-13T05:46:39.584Z,26.13
2018-07-13T05:47:45.177Z,22.07
2018-07-13T05:48:50.819Z,26.10
2018-07-13T05:49:56.005Z,33.60
2018-07-13T05:51:01.497Z,32.77
2018-07-13T05:52:07.165Z,18.07
2018-07-13T05:53:12.697Z,26.17
2018-07-13T05:54:18.279Z,24.30
2018-07-13T05:55:23.861Z,27.10
2018-07-13T05:56:29.405Z,23.83
2018-07-13T05:57:34.993Z,25.63
2018-07-13T05:58:40.576Z,25.63
2018-07-13T05:59:46.367Z,27.00
2018-07-13T06:00:52.358Z,20.43
2018-07-13T06:01:58.049Z,20.23
2018-07-13T06:03:03.730Z,27.03
2018-07-13T06:04:10.155Z,24.33
2018-07-13T06:05:15.718Z,31.23
2018-07-13T06:06:21.299Z,24.00
2018-07-13T06:07:27.238Z,27.53
2018-07-13T06:08:33.297Z,18.03
2018-07-13T06:09:38.936Z,27.27
2018-07-13T06:10:44.771Z,21.40
2018-07-13T06:11:50.353Z,22.20
2018-07-13T06:12:55.921Z,19.30
2018-07-13T06:14:01.834Z,17.50
2018-07-13T06:15:07.611Z,17.83
2018-07-13T06:16:12.944Z,21.27
2018-07-13T06:17:18.426Z,16.83
2018-07-13T06:18:23.939Z,17.90
2018-07-13T06:19:29.481Z,21.90
2018-07-13T06:20:34.949Z,15.87
2018-07-13T06:21:40.869Z,21.50
2018-07-13T06:22:46.169Z,15.30
2018-07-13T06:23:51.553Z,23.33
2018-07-13T06:24:57.025Z,18.37
2018-07-13T06:26:02.488Z,17.10
2018-07-13T06:27:08.026Z,13.53
2018-07-13T06:28:13.506Z,17.10
2018-07-13T06:29:18.644Z,12.53
2018-07-13T06:30:24.222Z,14.57
2018-07-13T06:31:29.752Z,20.23
2018-07-13T06:32:35.154Z,12.40
2018-07-13T06:33:40.665Z,14.70
2018-07-13T06:34:46.201Z,17.90
2018-07-13T06:35:51.682Z,19.83
2018-07-13T06:36:57.203Z,18.00
2018-07-13T06:38:02.793Z,12.53
2018-07-13T06:39:11.131Z,29.23
2018-07-13T06:40:16.689Z,11.67
2018-07-13T06:41:22.420Z,12.60
2018-07-13T06:42:27.896Z,18.70
2018-07-13T06:43:33.557Z,17.80
2018-07-13T06:44:39.392Z,11.90
2018-07-13T06:45:45.241Z,13.20
2018-07-13T06:46:50.804Z,20.53
2018-07-13T06:47:56.574Z,11.90
2018-07-13T06:49:02.067Z,12.73
2018-07-13T06:50:08.230Z,13.53
2018-07-13T06:51:14.018Z,67.97
2018-07-13T06:52:19.674Z,18.60
2018-07-13T06:53:25.155Z,16.60
2018-07-13T06:54:30.590Z,15.27
2018-07-13T06:55:36.129Z,11.30
2018-07-13T06:56:41.874Z,10.40
2018-07-13T06:58:04.201Z,10.47
2018-07-13T06:59:15.930Z,16.37
2018-07-13T07:00:57.928Z,19.43
2018-07-13T07:02:03.478Z,14.60
2018-07-13T07:03:09.125Z,9.40
2018-07-13T07:04:30.582Z,14.30
2018-07-13T07:06:00.449Z,19.43
2018-07-13T07:07:14.057Z,18.07
2018-07-13T07:08:19.585Z,10.43
2018-07-13T07:09:26.877Z,16.27
2018-07-13T07:10:32.445Z,10.80
2018-07-13T07:11:38.057Z,19.10
2018-07-13T07:13:01.853Z,14.30
2018-07-13T07:14:07.317Z,10.07
2018-07-13T07:15:13.101Z,12.40
2018-07-13T07:16:18.584Z,12.83
2018-07-13T07:17:24.002Z,9.47
2018-07-13T07:18:30.172Z,11.53
2018-07-13T07:19:35.712Z,10.27
2018-07-13T07:20:41.212Z,14.70
2018-07-13T07:21:46.914Z,16.73
2018-07-13T07:22:52.493Z,9.80
2018-07-13T07:23:58.074Z,14.30
2018-07-13T07:25:03.555Z,13.43
2018-07-13T07:26:09.145Z,12.67
2018-07-13T07:27:14.714Z,11.97
2018-07-13T07:28:20.207Z,10.17
2018-07-13T07:29:25.758Z,14.53
2018-07-13T07:30:31.361Z,12.70
2018-07-13T07:31:36.837Z,11.87
2018-07-13T07:32:42.378Z,15.07
2018-07-13T07:33:47.606Z,10.93
2018-07-13T07:34:53.021Z,11.87
2018-07-13T07:35:58.490Z,14.63
2018-07-13T07:37:03.933Z,14.73
2018-07-13T07:38:09.896Z,10.73
2018-07-13T07:39:15.345Z,14.20
2018-07-13T07:40:20.925Z,14.53
2018-07-13T07:41:26.435Z,10.77
2018-07-13T07:42:32.359Z,9.93
2018-07-13T07:43:38.008Z,10.50
2018-07-13T07:44:43.513Z,19.43
2018-07-13T07:45:49.365Z,14.07
2018-07-13T07:46:54.834Z,22.70
2018-07-13T07:48:00.389Z,10.43
2018-07-13T07:49:05.872Z,17.80
2018-07-13T07:50:10.991Z,17.23
2018-07-13T07:51:16.333Z,8.33
2018-07-13T07:52:22.117Z,12.80
2018-07-13T07:53:27.596Z,13.33
2018-07-13T07:54:33.034Z,18.67
2018-07-13T07:55:38.516Z,14.63
2018-07-13T07:56:43.672Z,12.77
2018-07-13T07:57:49.254Z,8.83
2018-07-13T07:58:54.994Z,18.17
2018-07-13T08:00:00.518Z,15.87
2018-07-13T08:01:05.988Z,16.00
2018-07-13T08:02:11.743Z,16.33
2018-07-13T08:03:17.657Z,13.80
2018-07-13T08:04:23.139Z,10.57
2018-07-13T08:05:28.781Z,16.13
2018-07-13T08:06:34.558Z,14.30
2018-07-13T08:07:40.325Z,15.03
2018-07-13T08:08:45.778Z,13.97
2018-07-13T08:09:51.210Z,12.80
2018-07-13T08:10:56.670Z,12.70
2018-07-13T08:12:02.080Z,13.43
2018-07-13T08:13:07.862Z,13.50
2018-07-13T08:14:13.645Z,14.07
2018-07-13T08:15:18.709Z,11.43
2018-07-13T08:16:24.306Z,13.30
2018-07-13T08:17:29.743Z,12.13
2018-07-13T08:18:35.289Z,14.43
2018-07-13T08:19:40.741Z,10.30
2018-07-13T08:20:48.993Z,13.00
2018-07-13T08:21:54.649Z,13.87
2018-07-13T08:23:03.579Z,15.87
2018-07-13T08:24:10.080Z,10.37
2018-07-13T08:25:15.426Z,6.87
2018-07-13T08:26:20.890Z,10.57
2018-07-13T08:28:02.065Z,18.77
2018-07-13T08:29:08.370Z,11.00
2018-07-13T08:30:38.331Z,12.30
2018-07-13T08:31:44.773Z,13.03
2018-07-13T08:32:50.402Z,15.33
2018-07-13T08:33:56.116Z,9.50
2018-07-13T08:35:01.592Z,10.43
2018-07-13T08:36:07.377Z,11.70
2018-07-13T08:37:12.947Z,11.70
2018-07-13T08:38:18.402Z,11.80
2018-07-13T08:39:23.983Z,15.53
2018-07-13T08:40:29.519Z,14.97
2018-07-13T08:41:35.203Z,8.87
2018-07-13T08:42:41.317Z,16.07
2018-07-13T08:43:46.837Z,10.60
2018-07-13T08:44:52.504Z,16.20
2018-07-13T08:45:58.114Z,14.47
2018-07-13T08:47:03.632Z,10.87
2018-07-13T08:48:09.218Z,9.53
2018-07-13T08:49:14.769Z,16.03
2018-07-13T08:50:20.378Z,14.20
2018-07-13T08:51:26.037Z,10.27
2018-07-13T08:52:31.817Z,13.20
2018-07-13T08:53:37.450Z,12.50
2018-07-13T08:54:43.123Z,10.27
2018-07-13T08:55:48.661Z,11.90
2018-07-13T08:56:55.181Z,11.20
2018-07-13T08:58:00.793Z,10.27
2018-07-13T08:59:06.622Z,12.07
2018-07-13T09:00:12.640Z,19.57
2018-07-13T09:01:18.106Z,11.63
2018-07-13T09:02:23.684Z,13.03
2018-07-13T09:03:29.181Z,6.80
2018-07-13T09:04:34.861Z,16.63
2018-07-13T09:05:40.545Z,11.07
2018-07-13T09:06:49.319Z,11.30
2018-07-13T09:07:54.898Z,14.43
2018-07-13T09:09:00.525Z,19.70
2018-07-13T09:10:10.464Z,11.23
2018-07-13T09:11:15.978Z,17.57
2018-07-13T09:12:21.544Z,15.43
2018-07-13T09:13:27.018Z,11.23
2018-07-13T09:14:32.597Z,8.93
2018-07-13T09:15:38.104Z,11.53
2018-07-13T09:16:43.788Z,9.57
2018-07-13T09:17:49.309Z,35.77
2018-07-13T09:18:54.878Z,25.83
2018-07-13T09:20:00.366Z,14.43
2018-07-13T09:21:06.189Z,12.83
2018-07-13T09:22:11.701Z,11.57
2018-07-13T09:23:17.227Z,9.80
2018-07-13T09:24:22.808Z,11.00
2018-07-13T09:25:28.313Z,11.77
2018-07-13T09:26:34.245Z,16.33
2018-07-13T09:27:40.238Z,10.37
2018-07-13T09:28:45.743Z,15.83
2018-07-13T09:29:51.197Z,11.20
2018-07-13T09:30:56.801Z,18.97
2018-07-13T09:32:02.305Z,9.10
2018-07-13T09:33:08.086Z,11.90
2018-07-13T09:34:13.661Z,19.77
2018-07-13T09:35:18.860Z,23.97
2018-07-13T09:36:24.684Z,15.70
2018-07-13T09:37:30.351Z,17.10
2018-07-13T09:38:35.888Z,16.67
2018-07-13T09:39:41.337Z,18.00
2018-07-13T09:40:47.223Z,68.40
2018-07-13T09:41:53.043Z,17.97
2018-07-13T09:43:00.602Z,41.37
2018-07-13T09:44:06.230Z,9.80
2018-07-13T09:45:11.863Z,17.13
2018-07-13T09:46:17.471Z,14.97
2018-07-13T09:47:23.249Z,53.47
2018-07-13T09:48:28.749Z,8.00
2018-07-13T09:49:34.237Z,15.17
2018-07-13T09:50:39.722Z,14.03
2018-07-13T09:51:45.247Z,8.07
2018-07-13T09:52:50.774Z,21.27
2018-07-13T09:53:56.585Z,21.43
2018-07-13T09:55:02.176Z,9.67
2018-07-13T09:56:08.427Z,13.33
2018-07-13T09:57:13.957Z,11.07
2018-07-13T09:58:29.962Z,16.80
2018-07-13T09:59:35.473Z,17.87
2018-07-13T10:00:46.365Z,11.20
2018-07-13T10:01:51.763Z,8.10
2018-07-13T10:02:57.140Z,6.67
2018-07-13T10:04:02.526Z,9.57
2018-07-13T10:05:08.361Z,14.37
2018-07-13T10:06:13.933Z,11.03
2018-07-13T10:07:19.735Z,16.20
2018-07-13T10:08:25.426Z,8.33
2018-07-13T10:09:31.014Z,13.30
2018-07-13T10:10:36.546Z,10.30
2018-07-13T10:11:42.182Z,10.43
2018-07-13T10:12:48.244Z,10.67
2018-07-13T10:13:53.763Z,10.10
2018-07-13T10:14:59.346Z,12.50
2018-07-13T10:16:04.911Z,8.97
2018-07-13T10:17:10.449Z,12.63
2018-07-13T10:18:16.230Z,9.90
2018-07-13T10:19:21.787Z,11.20
2018-07-13T10:20:28.131Z,11.60
2018-07-13T10:21:34.910Z,10.17
2018-07-13T10:22:40.093Z,7.90
2018-07-13T10:23:46.666Z,8.53
2018-07-13T10:24:53.219Z,12.53
2018-07-13T10:26:04.474Z,11.63
2018-07-13T10:27:10.042Z,17.07
2018-07-13T10:28:15.585Z,12.53
2018-07-13T10:29:31.611Z,14.10
2018-07-13T10:30:39.073Z,12.60
2018-07-13T10:31:44.641Z,9.33
2018-07-13T10:32:50.314Z,12.10
2018-07-13T10:33:55.899Z,6.33
2018-07-13T10:35:03.484Z,7.40
2018-07-13T10:36:11.931Z,13.53
2018-07-13T10:37:17.541Z,6.73
2018-07-13T10:38:23.606Z,10.03
2018-07-13T10:39:29.192Z,7.97
2018-07-13T10:40:34.765Z,8.30
2018-07-13T10:41:40.269Z,11.10
2018-07-13T10:42:45.998Z,12.30
2018-07-13T10:43:54.449Z,10.77
2018-07-13T10:45:03.173Z,9.07
2018-07-13T10:46:08.721Z,8.43
2018-07-13T10:47:14.246Z,7.63
2018-07-13T10:48:19.511Z,7.27
2018-07-13T10:49:24.926Z,14.97
2018-07-13T10:50:30.355Z,8.57
2018-07-13T10:51:35.888Z,11.83
2018-07-13T10:52:41.386Z,8.97
2018-07-13T10:53:46.827Z,13.33
2018-07-13T10:54:52.256Z,7.40
2018-07-13T10:55:57.788Z,7.60
2018-07-13T10:57:03.284Z,7.70
2018-07-13T10:58:09.170Z,9.70
2018-07-13T10:59:14.622Z,7.87
2018-07-13T11:00:20.137Z,8.37
2018-07-13T11:01:25.718Z,10.93
2018-07-13T11:02:31.570Z,7.30
2018-07-13T11:03:37.058Z,7.47
2018-07-13T11:04:42.565Z,8.67
2018-07-13T11:05:47.979Z,9.50
2018-07-13T11:06:53.839Z,9.73
2018-07-13T11:07:59.431Z,6.60
2018-07-13T11:09:06.249Z,7.97
2018-07-13T11:10:11.777Z,8.07
2018-07-13T11:11:17.257Z,14.10
2018-07-13T11:12:22.854Z,8.07
2018-07-13T11:13:28.460Z,8.03
2018-07-13T11:14:33.902Z,4.73
2018-07-13T11:15:39.402Z,8.77
2018-07-13T11:16:45.218Z,11.80
2018-07-13T11:17:50.707Z,6.23
2018-07-13T11:18:56.855Z,10.80
2018-07-13T11:20:02.349Z,17.90
2018-07-13T11:21:08.209Z,10.40
2018-07-13T11:22:13.704Z,8.43
2018-07-13T11:23:19.377Z,7.67
2018-07-13T11:24:24.833Z,7.00
2018-07-13T11:25:30.422Z,9.30
2018-07-13T11:26:35.849Z,10.70
2018-07-13T11:27:41.316Z,8.83
2018-07-13T11:28:46.727Z,11.73
2018-07-13T11:29:52.231Z,11.20
2018-07-13T11:30:57.393Z,5.33
2018-07-13T11:32:02.982Z,9.10
2018-07-13T11:33:08.549Z,19.90
2018-07-13T11:34:13.964Z,11.50
2018-07-13T11:35:19.408Z,18.93
2018-07-13T11:36:24.877Z,16.10
2018-07-13T11:37:30.487Z,13.60
2018-07-13T11:38:36.409Z,8.60
2018-07-13T11:39:41.966Z,12.33
2018-07-13T11:40:47.501Z,10.57
2018-07-13T11:41:52.953Z,13.40
2018-07-13T11:42:58.477Z,16.00
2018-07-13T11:44:03.983Z,11.40
2018-07-13T11:45:09.493Z,7.33
2018-07-13T11:46:15.379Z,6.33
2018-07-13T11:47:20.922Z,11.30
2018-07-13T11:48:26.432Z,7.30
2018-07-13T11:49:32.034Z,3.53
2018-07-13T11:50:37.481Z,5.80
2018-07-13T11:51:42.884Z,7.57
2018-07-13T11:52:48.602Z,13.10
2018-07-13T11:53:54.061Z,9.07
2018-07-13T11:54:59.913Z,4.37
2018-07-13T11:56:05.449Z,9.03
2018-07-13T11:57:10.908Z,7.70
2018-07-13T11:58:16.331Z,6.93
2018-07-13T11:59:21.773Z,8.23
2018-07-13T12:00:27.349Z,9.80
2018-07-13T12:01:32.877Z,6.37
2018-07-13T12:02:38.405Z,4.93
2018-07-13T12:03:43.965Z,9.07
2018-07-13T12:04:49.470Z,6.07
2018-07-13T12:05:55.060Z,9.67
2018-07-13T12:07:00.625Z,6.23
2018-07-13T12:08:06.186Z,12.63
2018-07-13T12:09:11.649Z,9.73
2018-07-13T12:10:17.138Z,13.00
2018-07-13T12:11:22.623Z,5.83
2018-07-13T12:12:28.277Z,6.77
2018-07-13T12:13:33.715Z,5.77
2018-07-13T12:14:39.357Z,5.20
2018-07-13T12:15:44.838Z,9.50
2018-07-13T12:16:50.331Z,9.37
2018-07-13T12:17:55.904Z,10.80
2018-07-13T12:19:01.349Z,4.33
2018-07-13T12:20:06.784Z,7.00
2018-07-13T12:21:12.251Z,8.20
2018-07-13T12:22:17.950Z,5.63
2018-07-13T12:23:23.409Z,8.23
2018-07-13T12:24:29.031Z,5.43
2018-07-13T12:25:34.526Z,5.00
2018-07-13T12:26:39.975Z,8.50
2018-07-13T12:27:45.425Z,5.47
2018-07-13T12:28:51.121Z,8.90
2018-07-13T12:29:56.664Z,7.63
2018-07-13T12:31:02.126Z,7.90
2018-07-13T12:32:07.605Z,5.17
2018-07-13T12:33:13.023Z,5.90
2018-07-13T12:34:18.850Z,10.60
2018-07-13T12:35:24.293Z,8.90
2018-07-13T12:36:29.978Z,8.53
2018-07-13T12:37:35.498Z,7.27
2018-07-13T12:38:40.966Z,8.30
2018-07-13T12:39:46.911Z,8.33
2018-07-13T12:40:52.294Z,10.77
2018-07-13T12:41:57.794Z,6.93
2018-07-13T12:43:03.225Z,6.13
2018-07-13T12:44:08.733Z,7.83
2018-07-13T12:45:14.315Z,10.60
2018-07-13T12:46:19.717Z,5.27
2018-07-13T12:47:25.246Z,8.80
2018-07-13T12:48:31.190Z,17.97
2018-07-13T12:49:37.610Z,5.13
2018-07-13T12:50:43.094Z,6.30
2018-07-13T12:51:48.521Z,7.13
2018-07-13T12:52:53.963Z,6.77
2018-07-13T12:53:59.517Z,9.37
2018-07-13T12:55:04.896Z,8.40
2018-07-13T12:56:10.438Z,5.30
2018-07-13T12:57:15.938Z,7.90
2018-07-13T12:58:21.427Z,10.33
2018-07-13T12:59:26.887Z,4.30
2018-07-13T13:00:32.363Z,9.03
2018-07-13T13:01:37.853Z,10.13
2018-07-13T13:02:43.387Z,6.73
2018-07-13T13:03:48.824Z,8.73
2018-07-13T13:04:54.274Z,7.23
2018-07-13T13:05:59.913Z,3.77
2018-07-13T13:07:05.449Z,8.57
2018-07-13T13:08:11.374Z,4.40
2018-07-13T13:09:16.777Z,5.27
2018-07-13T13:10:22.266Z,8.87
2018-07-13T13:11:27.734Z,3.77
2018-07-13T13:12:33.265Z,7.27
2018-07-13T13:13:38.709Z,3.60
2018-07-13T13:14:44.150Z,7.70
2018-07-13T13:15:49.341Z,8.53
2018-07-13T13:16:54.688Z,8.23
2018-07-13T13:18:00.282Z,4.83
2018-07-13T13:19:05.733Z,5.30
2018-07-13T13:20:11.206Z,3.20
2018-07-13T13:21:16.790Z,5.07
2018-07-13T13:22:22.293Z,2.87
2018-07-13T13:23:27.974Z,4.23
2018-07-13T13:24:33.391Z,7.90
2018-07-13T13:25:39.021Z,5.97
2018-07-13T13:26:44.485Z,4.60
2018-07-13T13:27:49.947Z,4.70
2018-07-13T13:28:55.434Z,3.47
2018-07-13T13:30:00.851Z,5.17
2018-07-13T13:31:06.437Z,10.40
2018-07-13T13:32:11.894Z,5.10
2018-07-13T13:33:17.065Z,5.47
2018-07-13T13:34:22.859Z,6.53
2018-07-13T13:35:28.837Z,9.13
2018-07-13T13:36:34.303Z,6.13
2018-07-13T13:37:39.766Z,6.03
2018-07-13T13:38:45.191Z,2.97
2018-07-13T13:39:50.624Z,9.23
2018-07-13T13:40:56.086Z,6.33
2018-07-13T13:42:01.592Z,4.53
2018-07-13T13:43:07.051Z,5.40
2018-07-13T13:44:12.565Z,6.53
2018-07-13T13:45:18.093Z,4.23
2018-07-13T13:46:23.574Z,8.13
2018-07-13T13:47:29.062Z,4.50
2018-07-13T13:48:34.573Z,4.73
2018-07-13T13:49:40.050Z,11.73
2018-07-13T13:50:45.417Z,3.43
2018-07-13T13:51:50.930Z,6.60
2018-07-13T13:52:56.711Z,10.93
2018-07-13T13:54:02.259Z,4.77
2018-07-13T13:55:08.063Z,5.93
2018-07-13T13:56:13.610Z,6.50
2018-07-13T13:57:19.059Z,4.60
2018-07-13T13:58:24.572Z,10.60
2018-07-13T13:59:30.371Z,4.60
2018-07-13T14:00:35.982Z,4.40
2018-07-13T14:01:41.161Z,5.50
2018-07-13T14:02:46.640Z,8.23
2018-07-13T14:03:52.133Z,4.50
2018-07-13T14:04:57.613Z,4.87
2018-07-13T14:06:03.037Z,8.13
2018-07-13T14:07:08.558Z,5.20
2018-07-13T14:08:14.003Z,4.30
2018-07-13T14:09:19.496Z,4.17
2018-07-13T14:10:24.938Z,5.43
2018-07-13T14:11:30.380Z,10.37
2018-07-13T14:12:35.837Z,5.60
2018-07-13T14:13:41.298Z,4.10
2018-07-13T14:14:46.767Z,4.10
2018-07-13T14:15:52.210Z,3.20